createdAt,value
2022-10-13T00:00:50.566Z,6.82
2022-10-13T00:03:18.576Z,7.50
2022-10-13T00:05:49.042Z,6.97
2022-10-13T00:08:19.495Z,7.10
2022-10-13T00:10:48.997Z,6.60
2022-10-13T00:13:17.109Z,6.63
2022-10-13T00:15:45.730Z,6.95
2022-10-13T00:18:13.241Z,6.88
2022-10-13T00:20:50.392Z,7.18
2022-10-13T00:23:18.494Z,7.10
2022-10-13T00:25:50.419Z,7.13
2022-10-13T00:28:19.439Z,7.40
2022-10-13T00:30:47.404Z,7.20
2022-10-13T00:33:14.951Z,7.18
2022-10-13T00:35:43.431Z,7.10
2022-10-13T00:38:11.466Z,6.82
2022-10-13T00:40:55.897Z,6.53
2022-10-13T00:43:24.291Z,7.00
2022-10-13T00:45:53.881Z,6.95
2022-10-13T00:48:29.424Z,7.30
2022-10-13T00:50:58.405Z,6.85
2022-10-13T00:53:31.135Z,7.32
2022-10-13T00:55:58.407Z,7.57
2022-10-13T00:58:31.666Z,8.02
2022-10-13T01:00:59.548Z,7.63
2022-10-13T01:03:27.355Z,6.72
2022-10-13T01:05:59.693Z,7.50
2022-10-13T01:08:28.090Z,7.70
2022-10-13T01:11:13.087Z,7.63
2022-10-13T01:13:53.049Z,7.63
2022-10-13T01:16:33.272Z,7.82
2022-10-13T01:19:00.571Z,7.28
2022-10-13T01:21:55.555Z,7.82
2022-10-13T01:24:46.942Z,8.43
2022-10-13T01:27:31.057Z,7.78
2022-10-13T01:30:08.757Z,7.63
2022-10-13T01:32:59.593Z,7.70
2022-10-13T01:35:33.650Z,7.68
2022-10-13T01:38:00.653Z,7.32
2022-10-13T01:40:55.854Z,8.48
2022-10-13T01:43:31.589Z,8.25
2022-10-13T01:46:07.951Z,8.38
2022-10-13T01:48:38.267Z,7.70
2022-10-13T01:51:07.600Z,7.45
2022-10-13T01:53:34.797Z,8.82
2022-10-13T01:56:02.144Z,8.10
2022-10-13T01:58:32.427Z,8.20
2022-10-13T02:01:24.189Z,7.60
2022-10-13T02:04:09.765Z,7.90
2022-10-13T02:06:58.075Z,8.95
2022-10-13T02:09:39.721Z,7.85
2022-10-13T02:12:12.335Z,8.10
2022-10-13T02:14:42.329Z,7.97
2022-10-13T02:17:10.329Z,7.28
2022-10-13T02:19:39.014Z,8.05
2022-10-13T02:22:08.424Z,7.10
2022-10-13T02:24:36.076Z,7.80
2022-10-13T02:27:06.097Z,7.75
2022-10-13T02:29:33.102Z,7.70
2022-10-13T02:32:00.400Z,7.75
2022-10-13T02:34:27.367Z,7.40
2022-10-13T02:36:54.192Z,7.50
2022-10-13T02:39:21.335Z,9.48
2022-10-13T02:41:48.657Z,8.10
2022-10-13T02:44:15.867Z,7.93
2022-10-13T02:46:43.382Z,7.68
2022-10-13T02:49:10.613Z,8.88
2022-10-13T02:51:40.109Z,7.70
2022-10-13T02:54:07.689Z,8.32
2022-10-13T02:56:34.715Z,8.07
2022-10-13T02:59:01.572Z,7.78
2022-10-13T03:01:28.424Z,7.85
2022-10-13T03:03:55.354Z,8.52
2022-10-13T03:06:22.663Z,8.27
2022-10-13T03:08:49.619Z,8.63
2022-10-13T03:11:16.440Z,7.97
2022-10-13T03:13:43.551Z,8.10
2022-10-13T03:16:10.684Z,8.63
2022-10-13T03:18:37.669Z,8.23
2022-10-13T03:21:06.742Z,7.95
2022-10-13T03:23:33.780Z,8.57
2022-10-13T03:26:01.140Z,8.00
2022-10-13T03:28:28.725Z,8.07
2022-10-13T03:31:07.121Z,8.70
2022-10-13T03:33:34.059Z,7.68
2022-10-13T03:36:03.147Z,7.50
2022-10-13T03:38:32.016Z,7.40
2022-10-13T03:41:04.213Z,8.57
2022-10-13T03:43:31.101Z,8.77
2022-10-13T03:46:00.276Z,8.15
2022-10-13T03:48:28.785Z,7.68
2022-10-13T03:50:56.141Z,9.20
2022-10-13T03:53:23.459Z,9.48
2022-10-13T03:55:55.798Z,8.43
2022-10-13T03:58:24.600Z,8.32
2022-10-13T04:00:52.227Z,8.32
2022-10-13T04:03:19.692Z,8.65
2022-10-13T04:05:47.123Z,9.38
2022-10-13T04:08:14.634Z,9.63
2022-10-13T04:10:42.026Z,8.93
2022-10-13T04:13:09.655Z,9.77
2022-10-13T04:15:40.804Z,8.88
2022-10-13T04:18:08.647Z,9.32
2022-10-13T04:20:41.842Z,9.43
2022-10-13T04:23:09.185Z,9.13
2022-10-13T04:25:38.046Z,10.13
2022-10-13T04:28:06.389Z,10.45
2022-10-13T04:30:35.028Z,10.05
2022-10-13T04:33:02.294Z,9.32
2022-10-13T04:35:29.648Z,9.43
2022-10-13T04:37:59.455Z,10.20
2022-10-13T04:40:27.468Z,9.80
2022-10-13T04:42:54.389Z,10.00
2022-10-13T04:45:21.489Z,10.05
2022-10-13T04:47:48.282Z,10.27
2022-10-13T04:50:15.155Z,10.52
2022-10-13T04:52:41.988Z,9.85
2022-10-13T04:55:09.137Z,10.48
2022-10-13T04:57:36.208Z,11.70
2022-10-13T05:00:03.996Z,11.02
2022-10-13T05:02:30.929Z,10.88
2022-10-13T05:04:57.764Z,12.32
2022-10-13T05:07:24.725Z,10.45
2022-10-13T05:09:52.050Z,10.63
2022-10-13T05:12:19.543Z,11.45
2022-10-13T05:14:46.809Z,11.65
2022-10-13T05:17:13.991Z,11.05
2022-10-13T05:19:41.487Z,11.18
2022-10-13T05:22:08.395Z,11.05
2022-10-13T05:24:38.753Z,10.80
2022-10-13T05:27:14.770Z,10.18
2022-10-13T05:29:42.094Z,11.07
2022-10-13T05:32:09.155Z,10.45
2022-10-13T05:34:36.191Z,11.50
2022-10-13T05:37:03.137Z,11.30
2022-10-13T05:39:30.173Z,11.43
2022-10-13T05:41:57.042Z,12.85
2022-10-13T05:44:24.879Z,12.20
2022-10-13T05:46:52.751Z,12.93
2022-10-13T05:49:19.825Z,13.80
2022-10-13T05:51:50.751Z,13.10
2022-10-13T05:54:31.118Z,13.93
2022-10-13T05:57:02.992Z,13.32
2022-10-13T05:59:33.498Z,14.38
2022-10-13T06:02:02.469Z,15.55
2022-10-13T06:04:37.986Z,14.75
2022-10-13T06:07:05.747Z,14.25
2022-10-13T06:09:35.864Z,14.88
2022-10-13T06:12:02.861Z,15.70
2022-10-13T06:14:30.164Z,15.90
2022-10-13T06:16:56.975Z,15.30
2022-10-13T06:19:23.816Z,14.82
2022-10-13T06:21:50.906Z,15.85
2022-10-13T06:24:18.003Z,15.70
2022-10-13T06:26:45.011Z,14.70
2022-10-13T06:29:12.055Z,17.00
2022-10-13T06:31:38.944Z,14.85
2022-10-13T06:34:05.887Z,16.77
2022-10-13T06:36:32.714Z,14.93
2022-10-13T06:38:59.657Z,16.40
2022-10-13T06:41:26.589Z,15.52
2022-10-13T06:43:53.447Z,16.45
2022-10-13T06:46:20.616Z,15.63
2022-10-13T06:48:51.047Z,16.30
2022-10-13T06:51:18.505Z,14.57
2022-10-13T06:53:45.688Z,16.10
2022-10-13T06:56:14.346Z,15.32
2022-10-13T06:58:41.397Z,15.93
2022-10-13T07:01:12.103Z,15.25
2022-10-13T07:03:38.948Z,16.25
2022-10-13T07:06:06.652Z,15.77
2022-10-13T07:08:34.525Z,15.85
2022-10-13T07:11:12.936Z,15.43
2022-10-13T07:13:46.293Z,15.32
2022-10-13T07:16:14.782Z,15.50
2022-10-13T07:18:41.968Z,17.35
2022-10-13T07:21:09.406Z,16.13
2022-10-13T07:23:36.313Z,16.25
2022-10-13T07:26:07.959Z,16.85
2022-10-13T07:28:35.110Z,15.93
2022-10-13T07:31:07.829Z,15.80
2022-10-13T07:33:34.949Z,15.75
2022-10-13T07:36:02.094Z,15.93
2022-10-13T07:38:28.898Z,16.85
2022-10-13T07:40:56.070Z,15.70
2022-10-13T07:43:23.063Z,15.93
2022-10-13T07:45:49.916Z,15.13
2022-10-13T07:48:16.852Z,16.10
2022-10-13T07:50:43.780Z,15.73
2022-10-13T07:53:10.914Z,16.08
2022-10-13T07:55:37.910Z,14.77
2022-10-13T07:58:04.930Z,15.60
2022-10-13T08:00:31.948Z,17.27
2022-10-13T08:02:58.809Z,16.15
2022-10-13T08:05:25.647Z,15.13
2022-10-13T08:07:54.772Z,15.88
2022-10-13T08:10:26.058Z,14.82
2022-10-13T08:12:53.008Z,14.68
2022-10-13T08:15:19.966Z,15.20
2022-10-13T08:17:46.857Z,13.68
2022-10-13T08:20:13.933Z,14.60
2022-10-13T08:22:40.718Z,15.20
2022-10-13T08:25:07.835Z,13.95
2022-10-13T08:27:50.256Z,12.98
2022-10-13T08:30:19.352Z,13.73
2022-10-13T08:32:46.550Z,13.18
2022-10-13T08:35:13.518Z,12.95
2022-10-13T08:37:40.496Z,12.48
2022-10-13T08:40:11.593Z,12.50
2022-10-13T08:42:38.724Z,13.15
2022-10-13T08:45:40.473Z,12.60
2022-10-13T08:48:01.986Z,12.30
2022-10-13T08:50:33.929Z,11.98
2022-10-13T08:53:14.972Z,12.25
2022-10-13T08:55:44.651Z,12.32
2022-10-13T08:58:27.020Z,12.25
2022-10-13T09:01:09.095Z,13.15
2022-10-13T09:03:54.577Z,11.85
2022-10-13T09:06:31.832Z,10.43
2022-10-13T09:09:01.531Z,10.88
2022-10-13T09:11:36.203Z,12.55
2022-10-13T09:14:13.066Z,12.98
2022-10-13T09:16:43.375Z,13.02
2022-10-13T09:19:23.869Z,11.45
2022-10-13T09:22:14.044Z,11.77
2022-10-13T09:24:41.081Z,12.38
2022-10-13T09:27:15.192Z,12.18
2022-10-13T09:29:44.292Z,12.68
2022-10-13T09:32:20.656Z,12.32
2022-10-13T09:34:48.944Z,13.52
2022-10-13T09:37:24.478Z,14.98
2022-10-13T09:40:14.234Z,15.48
2022-10-13T09:42:41.213Z,13.85
2022-10-13T09:45:22.193Z,14.73
2022-10-13T09:47:53.310Z,14.88
2022-10-13T09:50:32.839Z,14.98
2022-10-13T09:53:24.110Z,14.88
2022-10-13T09:56:07.182Z,15.25
2022-10-13T09:58:36.756Z,15.30
2022-10-13T10:01:05.084Z,15.13
2022-10-13T10:03:38.661Z,15.95
2022-10-13T10:06:14.586Z,16.85
2022-10-13T10:09:09.674Z,16.08
2022-10-13T10:11:43.592Z,16.20
2022-10-13T10:14:15.514Z,16.65
2022-10-13T10:16:55.197Z,16.17
2022-10-13T10:19:32.096Z,16.83
2022-10-13T10:22:10.635Z,17.60
2022-10-13T10:24:49.423Z,17.17
2022-10-13T10:27:38.931Z,15.80
2022-10-13T10:30:21.157Z,18.02
2022-10-13T10:33:12.753Z,17.88
2022-10-13T10:36:03.090Z,17.00
2022-10-13T10:38:38.903Z,18.75
2022-10-13T10:41:31.477Z,19.40
2022-10-13T10:44:14.949Z,17.67
2022-10-13T10:47:17.552Z,19.40
2022-10-13T10:49:49.045Z,18.15
2022-10-13T10:52:27.184Z,17.98
2022-10-13T10:55:09.441Z,18.55
2022-10-13T10:57:53.717Z,18.55
2022-10-13T11:00:24.813Z,18.05
2022-10-13T11:03:33.220Z,18.48
2022-10-13T11:06:21.942Z,18.55
2022-10-13T11:08:50.272Z,18.67
2022-10-13T11:11:24.874Z,17.73
2022-10-13T11:13:55.735Z,16.50
2022-10-13T11:16:31.522Z,16.27
2022-10-13T11:19:25.076Z,16.90
2022-10-13T11:21:58.129Z,17.90
2022-10-13T11:24:52.760Z,17.02
2022-10-13T11:27:34.260Z,16.30
2022-10-13T11:30:02.360Z,16.13
2022-10-13T11:32:32.896Z,14.77
2022-10-13T11:35:04.834Z,15.52
2022-10-13T11:38:06.093Z,13.95
2022-10-13T11:41:21.825Z,14.27
2022-10-13T11:44:20.978Z,14.15
2022-10-13T11:46:54.214Z,14.10
2022-10-13T11:49:39.486Z,13.30
2022-10-13T11:52:12.480Z,13.60
2022-10-13T11:54:54.923Z,14.48
2022-10-13T11:57:26.702Z,14.35
2022-10-13T11:59:56.868Z,14.05
2022-10-13T12:02:26.493Z,13.40
2022-10-13T12:05:08.803Z,14.25
2022-10-13T12:07:41.612Z,13.90
2022-10-13T12:10:23.655Z,13.77
2022-10-13T12:12:51.285Z,12.85
2022-10-13T12:15:44.551Z,13.13
2022-10-13T12:18:34.069Z,13.63
2022-10-13T12:21:20.038Z,13.27
2022-10-13T12:23:48.831Z,13.05
2022-10-13T12:26:18.067Z,13.98
2022-10-13T12:28:57.177Z,13.93
2022-10-13T12:31:25.648Z,13.55
2022-10-13T12:33:55.392Z,13.02
2022-10-13T12:36:30.123Z,13.15
2022-10-13T12:39:05.610Z,13.73
2022-10-13T12:41:35.308Z,13.93
2022-10-13T12:44:06.705Z,14.02
2022-10-13T12:46:40.377Z,13.98
2022-10-13T12:49:12.691Z,13.27
2022-10-13T12:51:40.106Z,13.13
2022-10-13T12:54:09.629Z,13.32
2022-10-13T12:56:36.594Z,12.98
2022-10-13T12:59:04.187Z,11.82
2022-10-13T13:01:35.257Z,12.70
2022-10-13T13:04:35.691Z,13.07
2022-10-13T13:07:05.468Z,12.45
2022-10-13T13:09:34.350Z,13.35
2022-10-13T13:12:28.275Z,12.30
2022-10-13T13:14:56.477Z,11.73
2022-10-13T13:17:57.754Z,12.45
2022-10-13T13:20:33.203Z,10.95
2022-10-13T13:23:00.779Z,9.73
2022-10-13T13:25:27.956Z,9.75
2022-10-13T13:27:54.869Z,9.25
2022-10-13T13:30:23.685Z,9.43
2022-10-13T13:32:51.414Z,9.20
2022-10-13T13:35:18.652Z,8.60
2022-10-13T13:37:49.855Z,8.95
2022-10-13T13:40:23.472Z,8.95
2022-10-13T13:42:50.600Z,9.00
2022-10-13T13:45:20.822Z,10.43
2022-10-13T13:47:48.451Z,9.32
2022-10-13T13:50:18.061Z,9.95
2022-10-13T13:52:45.094Z,9.98
2022-10-13T13:55:12.094Z,9.73
2022-10-13T13:57:39.063Z,8.52
2022-10-13T14:00:06.951Z,7.78
2022-10-13T14:02:33.938Z,7.13
2022-10-13T14:05:00.838Z,6.65
2022-10-13T14:07:27.661Z,7.10
2022-10-13T14:09:57.856Z,7.57
2022-10-13T14:12:30.714Z,5.20
2022-10-13T14:14:58.704Z,4.97
2022-10-13T14:17:30.123Z,5.30
2022-10-13T14:19:57.185Z,4.60
2022-10-13T14:22:24.210Z,4.72
2022-10-13T14:24:51.244Z,4.22
2022-10-13T14:27:18.054Z,4.78
2022-10-13T14:29:45.232Z,5.15
2022-10-13T14:32:12.681Z,5.30
2022-10-13T14:34:39.691Z,4.68
2022-10-13T14:37:06.595Z,5.07
2022-10-13T14:39:33.915Z,5.90
2022-10-13T14:42:00.997Z,5.38
2022-10-13T14:44:28.233Z,5.63
2022-10-13T14:46:55.673Z,6.20
2022-10-13T14:49:22.935Z,6.43
2022-10-13T14:51:49.759Z,6.30
2022-10-13T14:54:16.848Z,6.45
2022-10-13T14:56:44.867Z,6.10
2022-10-13T14:59:12.535Z,5.75
2022-10-13T15:01:43.530Z,6.15
2022-10-13T15:04:10.737Z,4.65
2022-10-13T15:06:41.771Z,4.43
2022-10-13T15:11:37.035Z,3.90
2022-10-13T15:14:04.601Z,3.78
2022-10-13T15:16:37.063Z,4.03
2022-10-13T15:19:04.367Z,4.88
2022-10-13T15:21:31.274Z,4.97
2022-10-13T15:23:58.456Z,4.63
2022-10-13T15:26:25.422Z,5.25
2022-10-13T15:28:53.303Z,5.85
2022-10-13T15:31:22.102Z,5.70
2022-10-13T15:33:51.886Z,5.80
2022-10-13T15:36:20.168Z,8.85
2022-10-13T15:38:47.113Z,6.63
2022-10-13T15:41:13.974Z,7.10
2022-10-13T15:43:41.135Z,7.55
2022-10-13T15:46:12.760Z,8.38
2022-10-13T15:48:40.287Z,9.85
2022-10-13T15:51:13.882Z,9.27
2022-10-13T15:53:40.995Z,9.57
2022-10-13T15:56:08.923Z,9.80
2022-10-13T15:58:36.348Z,10.25
2022-10-13T16:01:12.006Z,9.38
2022-10-13T16:03:39.338Z,9.77
2022-10-13T16:06:08.379Z,9.82
2022-10-13T16:08:40.280Z,10.18
2022-10-13T16:11:13.361Z,9.93
2022-10-13T16:13:41.394Z,9.20
2022-10-13T16:16:08.908Z,9.57
2022-10-13T16:18:37.971Z,9.85
2022-10-13T16:21:17.292Z,9.80
2022-10-13T16:23:46.264Z,9.43
2022-10-13T16:26:13.339Z,9.70
2022-10-13T16:28:40.463Z,9.95
2022-10-13T16:31:13.699Z,10.63
2022-10-13T16:33:41.937Z,11.02
2022-10-13T16:36:11.692Z,10.35
2022-10-13T16:38:38.824Z,10.80
2022-10-13T16:41:12.194Z,11.15
2022-10-13T16:43:39.168Z,10.60
2022-10-13T16:46:08.353Z,10.68
2022-10-13T16:48:35.338Z,10.75
2022-10-13T16:51:12.185Z,11.15
2022-10-13T16:53:39.464Z,9.68
2022-10-13T16:56:08.225Z,10.18
2022-10-13T16:58:35.976Z,9.77
2022-10-13T17:01:11.562Z,10.55
2022-10-13T17:03:39.203Z,11.35
2022-10-13T17:06:07.100Z,10.13
2022-10-13T17:08:34.106Z,11.05
2022-10-13T17:11:01.481Z,11.75
2022-10-13T17:13:28.611Z,11.32
2022-10-13T17:15:57.079Z,11.55
2022-10-13T17:18:25.440Z,11.25
2022-10-13T17:20:59.703Z,10.73
2022-10-13T17:23:28.327Z,13.07
2022-10-13T17:25:56.481Z,11.32
2022-10-13T17:28:23.621Z,12.68
2022-10-13T17:30:58.955Z,11.43
2022-10-13T17:33:27.662Z,11.00
2022-10-13T17:36:06.900Z,11.20
2022-10-13T17:38:34.132Z,10.20
2022-10-13T17:41:06.589Z,11.23
2022-10-13T17:43:34.779Z,11.23
2022-10-13T17:46:34.358Z,11.07
2022-10-13T17:48:57.648Z,11.38
2022-10-13T17:51:24.972Z,11.77
2022-10-13T17:53:52.497Z,11.55
2022-10-13T17:56:25.235Z,11.15
2022-10-13T17:58:52.764Z,11.70
2022-10-13T18:01:27.190Z,10.43
2022-10-13T18:03:56.492Z,10.45
2022-10-13T18:06:24.063Z,11.68
2022-10-13T18:08:51.648Z,11.60
2022-10-13T18:11:20.959Z,10.57
2022-10-13T18:13:48.595Z,10.68
2022-10-13T18:16:21.193Z,11.40
2022-10-13T18:18:50.086Z,11.60
2022-10-13T18:21:19.789Z,11.43
2022-10-13T18:23:47.637Z,10.60
2022-10-13T18:26:19.327Z,11.15
2022-10-13T18:28:47.950Z,15.23
2022-10-13T18:31:16.261Z,14.88
2022-10-13T18:33:43.450Z,13.98
2022-10-13T18:36:20.097Z,12.75
2022-10-13T18:38:47.948Z,13.30
2022-10-13T18:41:15.593Z,12.80
2022-10-13T18:43:42.997Z,13.15
2022-10-13T18:46:10.604Z,12.48
2022-10-13T18:48:37.658Z,12.23
2022-10-13T18:51:09.876Z,12.43
2022-10-13T18:53:39.239Z,13.13
2022-10-13T18:56:10.186Z,12.88
2022-10-13T18:58:37.210Z,12.88
2022-10-13T19:01:10.254Z,11.68
2022-10-13T19:03:39.139Z,12.68
2022-10-13T19:06:08.654Z,12.98
2022-10-13T19:08:36.105Z,13.43
2022-10-13T19:11:14.459Z,14.27
2022-10-13T19:13:42.038Z,13.95
2022-10-13T19:16:09.402Z,13.30
2022-10-13T19:18:36.600Z,13.40
2022-10-13T19:21:04.139Z,12.88
2022-10-13T19:23:31.308Z,12.20
2022-10-13T19:25:59.020Z,12.88
2022-10-13T19:28:26.339Z,12.70
2022-10-13T19:30:53.302Z,13.27
2022-10-13T19:33:20.399Z,13.32
2022-10-13T19:35:51.618Z,13.60
2022-10-13T19:38:18.907Z,13.48
2022-10-13T19:40:49.630Z,13.85
2022-10-13T19:43:17.548Z,13.30
2022-10-13T19:45:59.619Z,13.85
2022-10-13T19:48:29.150Z,15.20
2022-10-13T19:50:56.288Z,14.70
2022-10-13T19:53:23.153Z,14.98
2022-10-13T19:55:50.168Z,15.18
2022-10-13T19:58:17.424Z,15.80
2022-10-13T20:00:45.872Z,15.43
2022-10-13T20:03:14.322Z,14.65
2022-10-13T20:05:41.668Z,14.63
2022-10-13T20:08:10.806Z,14.93
2022-10-13T20:10:39.347Z,14.25
2022-10-13T20:13:07.300Z,13.90
2022-10-13T20:15:34.264Z,14.00
2022-10-13T20:18:01.343Z,13.57
2022-10-13T20:20:28.594Z,13.57
2022-10-13T20:22:55.589Z,13.55
2022-10-13T20:25:22.567Z,14.07
2022-10-13T20:27:49.682Z,14.68
2022-10-13T20:30:16.915Z,13.20
2022-10-13T20:32:43.882Z,14.45
2022-10-13T20:35:10.941Z,15.07
2022-10-13T20:37:37.931Z,14.23
2022-10-13T20:40:05.637Z,14.32
2022-10-13T20:42:32.477Z,14.32
2022-10-13T20:45:00.804Z,14.23
2022-10-13T20:47:27.876Z,13.50
2022-10-13T20:49:54.814Z,13.65
2022-10-13T20:52:21.655Z,13.63
2022-10-13T20:54:48.661Z,13.65
2022-10-13T20:57:15.565Z,14.57
2022-10-13T20:59:42.481Z,15.02
2022-10-13T21:02:13.092Z,14.05
2022-10-13T21:04:40.204Z,13.68
2022-10-13T21:07:07.036Z,13.20
2022-10-13T21:09:35.817Z,13.82
2022-10-13T21:12:02.907Z,14.63
2022-10-13T21:14:29.866Z,14.75
2022-10-13T21:16:56.932Z,14.00
2022-10-13T21:19:24.063Z,13.50
2022-10-13T21:21:50.896Z,15.13
2022-10-13T21:24:17.897Z,14.60
2022-10-13T21:27:50.227Z,13.90
2022-10-13T21:30:17.652Z,15.32
2022-10-13T21:32:44.980Z,15.05
2022-10-13T21:35:11.807Z,15.02
2022-10-13T21:37:39.204Z,14.48
2022-10-13T21:40:07.242Z,14.95
2022-10-13T21:42:34.616Z,14.57
2022-10-13T21:45:03.246Z,14.63
2022-10-13T21:47:32.536Z,14.43
2022-10-13T21:50:00.449Z,14.25
2022-10-13T21:52:28.478Z,13.90
2022-10-13T21:54:55.489Z,14.32
2022-10-13T21:57:23.031Z,14.27
2022-10-13T21:59:50.133Z,14.80
2022-10-13T22:02:17.120Z,14.65
2022-10-13T22:04:43.985Z,15.07
2022-10-13T22:07:10.767Z,15.88
2022-10-13T22:09:37.799Z,15.15
2022-10-13T22:12:05.372Z,15.60
2022-10-13T22:14:32.495Z,15.55
2022-10-13T22:16:59.554Z,14.50
2022-10-13T22:19:26.560Z,15.50
2022-10-13T22:21:53.579Z,15.02
2022-10-13T22:24:21.915Z,15.70
2022-10-13T22:26:50.049Z,15.82
2022-10-13T22:29:20.232Z,16.88
2022-10-13T22:31:47.233Z,16.10
2022-10-13T22:34:15.429Z,16.55
2022-10-13T22:36:45.128Z,15.18
2022-10-13T22:39:13.073Z,16.70
2022-10-13T22:41:40.118Z,16.33
2022-10-13T22:44:07.523Z,16.17
2022-10-13T22:46:37.046Z,16.77
2022-10-13T22:49:05.360Z,15.48
2022-10-13T22:51:33.655Z,16.35
2022-10-13T22:54:00.540Z,16.40
2022-10-13T22:56:30.257Z,16.77
2022-10-13T22:58:59.893Z,16.05
2022-10-13T23:01:27.652Z,16.85
2022-10-13T23:03:57.275Z,16.08
2022-10-13T23:06:27.179Z,17.08
2022-10-13T23:08:54.355Z,16.00
2022-10-13T23:11:21.644Z,16.02
2022-10-13T23:13:49.093Z,15.63
2022-10-13T23:16:19.823Z,16.50
2022-10-13T23:18:47.107Z,15.45
2022-10-13T23:21:16.814Z,16.23
2022-10-13T23:23:44.116Z,15.77
2022-10-13T23:26:17.817Z,15.68
2022-10-13T23:28:45.188Z,14.95
2022-10-13T23:31:15.299Z,15.35
2022-10-13T23:33:42.514Z,16.92
2022-10-13T23:36:16.766Z,16.38
2022-10-13T23:38:44.116Z,17.02
2022-10-13T23:41:13.355Z,15.23
2022-10-13T23:43:41.625Z,16.90
2022-10-13T23:46:11.541Z,16.35
2022-10-13T23:48:40.043Z,17.25
2022-10-13T23:51:09.051Z,17.20
2022-10-13T23:53:38.276Z,17.23
2022-10-13T23:56:06.466Z,16.95
2022-10-13T23:58:36.662Z,16.02
